Time,TemperatureF,DewpointF,PressureIn,WindDirection,WindDirectionDegrees,WindSpeedMPH,WindSpeedGustMPH,Humidity,HourlyPrecipIn,Conditions,Clouds,dailyrainin,SoftwareType,DateUTC
2013-03-25 00:00:00,35.2,-5.2,17.72,East,80,6.3,6.3,17,0.00,,---,0.00,VWS V13.01,2013-03-25 04:00:00,
2013-03-25 00:05:00,35.2,-5.2,17.72,ESE,116,0.0,4.0,17,0.00,,---,0.00,VWS V13.01,2013-03-25 04:05:00,
2013-03-25 00:10:00,35.2,-5.2,17.72,ESE,118,0.0,0.0,17,0.00,,---,0.00,VWS V13.01,2013-03-25 04:10:00,
2013-03-25 00:15:00,35.2,-5.2,17.72,ESE,107,2.7,5.8,17,0.00,,---,0.00,VWS V13.01,2013-03-25 04:15:00,
2013-03-25 00:20:00,35.1,-5.3,17.72,ENE,71,3.6,5.4,17,0.00,,---,0.00,VWS V13.01,2013-03-25 04:20:00,
2013-03-25 00:25:00,35.1,-5.3,17.72,East,91,2.2,3.1,17,0.00,,---,0.00,VWS V13.01,2013-03-25 04:25:00,
2013-03-25 00:30:00,35.1,-5.3,17.72,ENE,65,3.1,3.1,17,0.00,,---,0.00,VWS V13.01,2013-03-25 04:30:00,
2013-03-25 00:35:00,35.1,-5.3,17.72,East,92,2.7,4.0,17,0.00,,---,0.00,VWS V13.01,2013-03-25 04:35:00,
2013-03-25 00:40:00,35.1,-5.3,17.72,ENE,67,2.7,4.0,17,0.00,,---,0.00,VWS V13.01,2013-03-25 04:40:00,
2013-03-25 00:45:00,35.1,-5.3,17.72,ESE,116,0.0,3.6,17,0.00,,---,0.00,VWS V13.01,2013-03-25 04:45:00,
2013-03-25 00:50:00,34.9,-5.5,17.72,SE,142,2.7,4.9,17,0.00,,---,0.00,VWS V13.01,2013-03-25 04:50:00,
2013-03-25 00:55:00,34.9,-5.5,17.72,ESE,117,5.8,5.8,17,0.00,,---,0.00,VWS V13.01,2013-03-25 04:55:00,
2013-03-25 01:00:00,34.9,-5.5,17.72,ESE,106,0.0,0.0,17,0.00,,---,0.00,VWS V13.01,2013-03-25 05:00:00,
2013-03-25 01:05:00,34.7,-5.6,17.72,East,83,4.0,4.0,17,0.00,,---,0.00,VWS V13.01,2013-03-25 05:05:00,
2013-03-25 01:10:00,34.7,-5.6,17.72,ENE,66,0.0,2.7,17,0.00,,---,0.00,VWS V13.01,2013-03-25 05:10:00,
2013-03-25 01:15:00,34.5,-5.8,17.72,East,97,3.6,4.9,17,0.00,,---,0.00,VWS V13.01,2013-03-25 05:15:00,
2013-03-25 01:20:00,34.5,-5.8,17.72,ESE,102,3.1,3.6,17,0.00,,---,0.00,VWS V13.01,2013-03-25 05:20:00,
2013-03-25 01:25:00,34.5,-5.8,17.72,ESE,102,3.1,3.1,17,0.00,,---,0.00,VWS V13.01,2013-03-25 05:25:00,
2013-03-25 01:30:00,34.7,-5.6,17.72,ESE,103,3.1,4.0,17,0.00,,---,0.00,VWS V13.01,2013-03-25 05:30:00,
2013-03-25 01:35:00,34.7,-5.6,17.72,ESE,104,0.0,3.6,17,0.00,,---,0.00,VWS V13.01,2013-03-25 05:35:00,
2013-03-25 01:40:00,34.5,-5.8,17.72,East,89,4.9,4.9,17,0.00,,---,0.00,VWS V13.01,2013-03-25 05:40:00,
2013-03-25 01:45:00,34.5,-5.8,17.72,East,87,3.1,3.6,17,0.00,,---,0.00,VWS V13.01,2013-03-25 05:45:00,
2013-03-25 01:50:00,34.5,-5.8,17.72,ESE,118,0.0,3.1,17,0.00,,---,0.00,VWS V13.01,2013-03-25 05:50:00,
2013-03-25 01:55:00,34.5,-5.8,17.72,ESE,123,3.1,3.1,17,0.00,,---,0.00,VWS V13.01,2013-03-25 05:55:00,
2013-03-25 02:00:00,34.5,-2.4,17.72,East,86,0.0,2.7,20,0.00,,---,0.00,VWS V13.01,2013-03-25 06:00:00,
2013-03-25 02:05:00,34.5,-2.4,17.72,ENE,68,2.7,4.9,20,0.00,,---,0.00,VWS V13.01,2013-03-25 06:05:00,
2013-03-25 02:10:00,34.3,-2.6,17.72,ESE,106,3.1,4.5,20,0.00,,---,0.00,VWS V13.01,2013-03-25 06:10:00,
2013-03-25 02:15:00,34.3,-2.6,17.72,East,89,4.0,4.0,20,0.00,,---,0.00,VWS V13.01,2013-03-25 06:15:00,
2013-03-25 02:20:00,34.5,-2.4,17.72,East,94,3.6,5.8,20,0.00,,---,0.00,VWS V13.01,2013-03-25 06:20:00,
2013-03-25 02:25:00,34.3,-2.6,17.72,ESE,113,3.1,7.2,20,0.00,,---,0.00,VWS V13.01,2013-03-25 06:25:00,
2013-03-25 02:30:00,34.3,-2.6,17.72,ESE,117,0.0,3.6,20,0.00,,---,0.00,VWS V13.01,2013-03-25 06:30:00,
2013-03-25 02:35:00,34.3,-2.6,17.72,SSE,156,0.0,0.0,20,0.00,,---,0.00,VWS V13.01,2013-03-25 06:35:00,
2013-03-25 02:40:00,34.3,-2.6,17.72,SE,135,0.0,2.2,20,0.00,,---,0.00,VWS V13.01,2013-03-25 06:40:00,
2013-03-25 02:45:00,34.2,-2.7,17.72,East,97,2.7,4.9,20,0.00,,---,0.00,VWS V13.01,2013-03-25 06:45:00,
2013-03-25 02:50:00,34.2,-2.7,17.72,ENE,69,0.0,3.6,20,0.00,,---,0.00,VWS V13.01,2013-03-25 06:50:00,
2013-03-25 02:55:00,34.2,-2.7,17.72,SE,128,0.0,0.0,20,0.00,,---,0.00,VWS V13.01,2013-03-25 06:55:00,
2013-03-25 03:00:00,34.0,-2.9,17.72,ENE,72,0.0,3.1,20,0.00,,---,0.00,VWS V13.01,2013-03-25 07:00:00,
2013-03-25 03:05:00,34.0,-2.9,17.72,ESE,114,2.7,2.7,20,0.00,,---,0.00,VWS V13.01,2013-03-25 07:05:00,
2013-03-25 03:10:00,34.0,-2.9,17.72,ESE,123,0.0,0.0,20,0.00,,---,0.00,VWS V13.01,2013-03-25 07:10:00,
2013-03-25 03:15:00,34.0,-2.9,17.72,ESE,108,0.0,3.1,20,0.00,,---,0.00,VWS V13.01,2013-03-25 07:15:00,
2013-03-25 03:20:00,34.0,-2.9,17.72,East,88,3.1,3.1,20,0.00,,---,0.00,VWS V13.01,2013-03-25 07:20:00,
2013-03-25 03:25:00,34.0,-2.9,17.72,ENE,77,0.0,3.6,20,0.00,,---,0.00,VWS V13.01,2013-03-25 07:25:00,
2013-03-25 03:30:00,34.0,-2.9,17.72,ENE,72,3.6,4.0,20,0.00,,---,0.00,VWS V13.01,2013-03-25 07:30:00,
2013-03-25 03:35:00,33.8,-3.0,17.72,East,97,0.0,3.6,20,0.00,,---,0.00,VWS V13.01,2013-03-25 07:35:00,
2013-03-25 03:40:00,33.8,-3.0,17.72,ENE,78,0.0,3.1,20,0.00,,---,0.00,VWS V13.01,2013-03-25 07:40:00,
2013-03-25 03:45:00,33.6,-3.2,17.72,ENE,66,4.0,5.4,20,0.00,,---,0.00,VWS V13.01,2013-03-25 07:45:00,
2013-03-25 03:50:00,33.8,-3.0,17.72,East,84,4.0,4.0,20,0.00,,---,0.00,VWS V13.01,2013-03-25 07:50:00,
2013-03-25 03:55:00,33.8,-3.0,17.72,SE,136,2.7,3.6,20,0.00,,---,0.00,VWS V13.01,2013-03-25 07:55:00,
2013-03-25 04:00:00,33.6,-3.2,17.72,East,88,0.0,0.0,20,0.00,,---,0.00,VWS V13.01,2013-03-25 08:00:00,
2013-03-25 04:05:00,33.6,-3.2,17.72,SE,136,3.1,5.4,20,0.00,,---,0.00,VWS V13.01,2013-03-25 08:05:00,
2013-03-25 04:10:00,33.6,-3.2,17.72,East,88,0.0,0.0,20,0.00,,---,0.00,VWS V13.01,2013-03-25 08:10:00,
2013-03-25 04:15:00,33.6,-3.2,17.72,East,87,0.0,2.2,20,0.00,,---,0.00,VWS V13.01,2013-03-25 08:15:00,
2013-03-25 04:20:00,33.4,-3.3,17.72,East,97,3.6,3.6,20,0.00,,---,0.00,VWS V13.01,2013-03-25 08:20:00,
2013-03-25 04:25:00,33.4,-3.3,17.72,ENE,65,2.7,4.0,20,0.00,,---,0.00,VWS V13.01,2013-03-25 08:25:00,
2013-03-25 04:30:00,33.4,-3.3,17.72,ENE,65,2.7,2.7,20,0.00,,---,0.00,VWS V13.01,2013-03-25 08:30:00,
2013-03-25 04:35:00,33.4,-3.3,17.72,East,100,0.0,4.0,20,0.00,,---,0.00,VWS V13.01,2013-03-25 08:35:00,
2013-03-25 04:40:00,33.4,-3.3,17.72,East,93,2.2,4.0,20,0.00,,---,0.00,VWS V13.01,2013-03-25 08:40:00,
2013-03-25 04:45:00,33.4,-3.3,17.72,ENE,69,4.0,4.0,20,0.00,,---,0.00,VWS V13.01,2013-03-25 08:45:00,
2013-03-25 04:50:00,33.4,-3.3,17.72,East,85,0.0,0.0,20,0.00,,---,0.00,VWS V13.01,2013-03-25 08:50:00,
2013-03-25 04:55:00,33.4,-3.3,17.72,ENE,61,0.0,4.0,20,0.00,,---,0.00,VWS V13.01,2013-03-25 08:55:00,
2013-03-25 05:00:00,33.4,-3.3,17.72,East,101,2.2,4.0,20,0.00,,---,0.00,VWS V13.01,2013-03-25 09:00:00,
2013-03-25 05:05:00,33.4,-3.3,17.72,ESE,105,0.0,0.0,20,0.00,,---,0.00,VWS V13.01,2013-03-25 09:05:00,
2013-03-25 05:10:00,33.4,-3.3,17.72,East,89,3.6,4.9,20,0.00,,---,0.00,VWS V13.01,2013-03-25 09:10:00,
2013-03-25 05:15:00,33.4,-3.3,17.72,SE,127,0.0,0.0,20,0.00,,---,0.00,VWS V13.01,2013-03-25 09:15:00,
2013-03-25 05:20:00,33.6,-3.2,17.72,ENE,60,3.1,3.1,20,0.00,,---,0.00,VWS V13.01,2013-03-25 09:20:00,
2013-03-25 05:25:00,33.6,-3.2,17.72,ENE,63,5.8,5.8,20,0.00,,---,0.00,VWS V13.01,2013-03-25 09:25:00,
2013-03-25 05:30:00,33.6,-3.2,17.72,East,84,0.0,3.1,20,0.00,,---,0.00,VWS V13.01,2013-03-25 09:30:00,
2013-03-25 05:35:00,33.6,-3.2,17.72,ENE,72,0.0,2.7,20,0.00,,---,0.00,VWS V13.01,2013-03-25 09:35:00,
2013-03-25 05:40:00,33.6,-3.2,17.72,East,96,0.0,0.0,20,0.00,,---,0.00,VWS V13.01,2013-03-25 09:40:00,
2013-03-25 05:44:00,33.4,-3.3,17.72,East,93,4.0,4.0,20,0.00,,---,0.00,VWS V13.01,2013-03-25 09:44:00,
2013-03-25 05:49:00,33.4,-3.3,17.72,ENE,78,0.0,0.0,20,0.00,,---,0.00,VWS V13.01,2013-03-25 09:49:00,
2013-03-25 05:54:00,33.4,-3.3,17.72,ESE,119,5.4,5.4,20,0.00,,---,0.00,VWS V13.01,2013-03-25 09:54:00,
2013-03-25 05:59:00,33.4,-3.3,17.72,East,85,2.7,2.7,20,0.00,,---,0.00,VWS V13.01,2013-03-25 09:59:00,
2013-03-25 06:04:00,33.4,-3.3,17.72,East,80,0.0,0.0,20,0.00,,---,0.00,VWS V13.01,2013-03-25 10:04:00,
2013-03-25 06:10:00,33.4,-3.3,17.72,ESE,102,0.0,3.1,20,0.00,,---,0.00,VWS V13.01,2013-03-25 10:10:00,
2013-03-25 06:15:00,33.4,-3.3,17.72,ESE,112,0.0,2.7,20,0.00,,---,0.00,VWS V13.01,2013-03-25 10:15:00,
2013-03-25 06:20:00,33.3,-3.5,17.72,SE,146,0.0,0.0,20,0.00,,---,0.00,VWS V13.01,2013-03-25 10:20:00,
2013-03-25 06:25:00,33.3,-3.5,17.72,South,183,0.0,0.0,20,0.00,,---,0.00,VWS V13.01,2013-03-25 10:25:00,
2013-03-25 06:30:00,33.3,-3.5,17.72,ENE,70,0.0,0.0,20,0.00,,---,0.00,VWS V13.01,2013-03-25 10:30:00,
2013-03-25 06:35:00,33.3,-3.5,17.72,SSE,165,0.0,2.7,20,0.00,,---,0.00,VWS V13.01,2013-03-25 10:35:00,
2013-03-25 06:40:00,33.1,-3.6,17.72,SE,145,2.2,3.6,20,0.00,,---,0.00,VWS V13.01,2013-03-25 10:40:00,
2013-03-25 06:45:00,33.1,-3.6,17.72,East,92,0.0,0.0,20,0.00,,---,0.00,VWS V13.01,2013-03-25 10:45:00,
2013-03-25 06:50:00,33.1,-3.6,17.72,East,92,0.0,0.0,20,0.00,,---,0.00,VWS V13.01,2013-03-25 10:50:00,
2013-03-25 06:55:00,32.9,-3.8,17.72,East,98,0.0,3.1,20,0.00,,---,0.00,VWS V13.01,2013-03-25 10:55:00,
2013-03-25 07:00:00,32.9,-3.8,17.72,ESE,122,0.0,4.0,20,0.00,,---,0.00,VWS V13.01,2013-03-25 11:00:00,
2013-03-25 07:05:00,33.1,-3.6,17.72,East,95,0.0,2.7,20,0.00,,---,0.00,VWS V13.01,2013-03-25 11:05:00,
2013-03-25 07:10:00,33.1,-3.6,17.72,ENE,72,2.2,2.2,20,0.00,,---,0.00,VWS V13.01,2013-03-25 11:10:00,
2013-03-25 07:15:00,32.9,-3.8,17.72,SE,125,0.0,2.2,20,0.00,,---,0.00,VWS V13.01,2013-03-25 11:15:00,
2013-03-25 07:20:00,32.9,-3.8,17.72,ENE,61,0.0,0.0,20,0.00,,---,0.00,VWS V13.01,2013-03-25 11:20:00,
2013-03-25 07:25:00,32.9,-3.8,17.72,East,91,0.0,2.2,20,0.00,,---,0.00,VWS V13.01,2013-03-25 11:25:00,
2013-03-25 07:30:00,32.9,-3.8,17.72,ENE,65,0.0,0.0,20,0.00,,---,0.00,VWS V13.01,2013-03-25 11:30:00,
2013-03-25 07:35:00,32.9,-3.8,17.72,ENE,66,0.0,0.0,20,0.00,,---,0.00,VWS V13.01,2013-03-25 11:35:00,
2013-03-25 07:40:00,32.9,-3.8,17.72,ENE,70,2.7,2.7,20,0.00,,---,0.00,VWS V13.01,2013-03-25 11:40:00,
2013-03-25 07:45:00,32.7,-3.9,17.72,East,96,2.7,3.6,20,0.00,,---,0.00,VWS V13.01,2013-03-25 11:45:00,
2013-03-25 07:50:00,32.9,-3.8,17.72,ESE,111,0.0,0.0,20,0.00,,---,0.00,VWS V13.01,2013-03-25 11:50:00,
2013-03-25 07:55:00,32.9,-3.8,17.72,ENE,75,3.1,3.1,20,0.00,,---,0.00,VWS V13.01,2013-03-25 11:55:00,
2013-03-25 08:00:00,33.1,-3.6,17.72,ENE,68,2.7,3.1,20,0.00,,---,0.00,VWS V13.01,2013-03-25 12:00:00,
2013-03-25 08:05:00,33.1,-3.6,17.72,East,81,0.0,4.0,20,0.00,,---,0.00,VWS V13.01,2013-03-25 12:05:00,
2013-03-25 08:10:00,33.1,-3.6,17.72,ENE,65,4.5,4.5,20,0.00,,---,0.00,VWS V13.01,2013-03-25 12:10:00,
2013-03-25 08:15:00,33.1,-3.6,17.72,ENE,72,0.0,3.1,20,0.00,,---,0.00,VWS V13.01,2013-03-25 12:15:00,
2013-03-25 08:20:00,33.3,-3.5,17.72,ESE,111,2.7,2.7,20,0.00,,---,0.00,VWS V13.01,2013-03-25 12:20:00,
2013-03-25 08:25:00,33.4,-3.3,17.72,ESE,118,0.0,0.0,20,0.00,,---,0.00,VWS V13.01,2013-03-25 12:25:00,
2013-03-25 08:30:00,33.6,-3.2,17.72,East,94,0.0,0.0,20,0.00,,---,0.00,VWS V13.01,2013-03-25 12:30:00,
2013-03-25 08:35:00,33.6,-3.2,17.72,ENE,59,0.0,3.1,20,0.00,,---,0.00,VWS V13.01,2013-03-25 12:35:00,
2013-03-25 08:40:00,33.8,-3.0,17.72,ESE,113,2.2,2.2,20,0.00,,---,0.00,VWS V13.01,2013-03-25 12:40:00,
2013-03-25 08:45:00,33.8,-3.0,17.72,East,94,0.0,3.1,20,0.00,,---,0.00,VWS V13.01,2013-03-25 12:45:00,
2013-03-25 08:50:00,34.2,-2.7,17.72,East,91,2.7,2.7,20,0.00,,---,0.00,VWS V13.01,2013-03-25 12:50:00,
2013-03-25 08:55:00,34.3,-2.6,17.72,SE,142,2.7,2.7,20,0.00,,---,0.00,VWS V13.01,2013-03-25 12:55:00,
2013-03-25 09:00:00,34.7,-2.3,17.72,ENE,77,0.0,0.0,20,0.00,,---,0.00,VWS V13.01,2013-03-25 13:00:00,
2013-03-25 09:05:00,35.1,-2.0,17.72,East,96,0.0,0.0,20,0.00,,---,0.00,VWS V13.01,2013-03-25 13:05:00,
2013-03-25 09:10:00,35.2,-1.8,17.72,ESE,118,0.0,0.0,20,0.00,,---,0.00,VWS V13.01,2013-03-25 13:10:00,
2013-03-25 09:15:00,35.2,-5.2,17.72,SE,133,0.0,5.4,17,0.00,,---,0.00,VWS V13.01,2013-03-25 13:15:00,
2013-03-25 09:20:00,35.1,-5.3,17.72,East,94,0.0,2.7,17,0.00,,---,0.00,VWS V13.01,2013-03-25 13:20:00,
2013-03-25 09:25:00,35.2,-5.2,17.72,East,85,2.7,3.1,17,0.00,,---,0.00,VWS V13.01,2013-03-25 13:25:00,
2013-03-25 09:30:00,35.2,-5.2,17.72,ENE,78,2.2,2.7,17,0.00,,---,0.00,VWS V13.01,2013-03-25 13:30:00,
2013-03-25 09:35:00,35.4,-5.1,17.72,South,177,0.0,0.0,17,0.00,,---,0.00,VWS V13.01,2013-03-25 13:35:00,
2013-03-25 09:40:00,35.6,-4.9,17.72,ESE,106,0.0,4.0,17,0.00,,---,0.00,VWS V13.01,2013-03-25 13:40:00,
2013-03-25 09:45:00,35.8,-4.8,17.72,ESE,112,2.7,2.7,17,0.00,,---,0.00,VWS V13.01,2013-03-25 13:45:00,
2013-03-25 09:50:00,36.0,-4.6,17.72,ESE,111,2.2,2.7,17,0.00,,---,0.00,VWS V13.01,2013-03-25 13:50:00,
2013-03-25 09:55:00,36.1,-4.5,17.72,East,88,0.0,0.0,17,0.00,,---,0.00,VWS V13.01,2013-03-25 13:55:00,
2013-03-25 10:00:00,36.3,-4.3,17.72,NNE,32,4.0,5.4,17,0.00,,---,0.00,VWS V13.01,2013-03-25 14:00:00,
2013-03-25 10:05:00,36.5,-4.2,17.72,East,84,3.1,3.1,17,0.00,,---,0.00,VWS V13.01,2013-03-25 14:05:00,
2013-03-25 10:10:00,36.7,-4.0,17.72,ENE,73,3.6,4.0,17,0.00,,---,0.00,VWS V13.01,2013-03-25 14:10:00,
2013-03-25 10:15:00,37.0,-3.7,17.72,NE,50,2.2,2.2,17,0.00,,---,0.00,VWS V13.01,2013-03-25 14:15:00,
2013-03-25 10:20:00,37.0,-3.7,17.72,East,95,3.1,5.4,17,0.00,,---,0.00,VWS V13.01,2013-03-25 14:20:00,
2013-03-25 10:25:00,37.2,-3.6,17.72,SSE,156,0.0,0.0,17,0.00,,---,0.00,VWS V13.01,2013-03-25 14:25:00,
2013-03-25 10:30:00,37.6,-4.5,17.72,East,93,0.0,0.0,16,0.00,,---,0.00,VWS V13.01,2013-03-25 14:30:00,
2013-03-25 10:35:00,37.9,-4.2,17.72,East,95,0.0,3.6,16,0.00,,---,0.00,VWS V13.01,2013-03-25 14:35:00,
2013-03-25 10:40:00,38.1,-4.1,17.72,East,95,0.0,0.0,16,0.00,,---,0.00,VWS V13.01,2013-03-25 14:40:00,
2013-03-25 10:45:00,38.3,-4.0,17.72,East,100,3.1,3.1,16,0.00,,---,0.00,VWS V13.01,2013-03-25 14:45:00,
2013-03-25 10:50:00,38.1,-4.1,17.72,SSE,157,0.0,0.0,16,0.00,,---,0.00,VWS V13.01,2013-03-25 14:50:00,
2013-03-25 10:55:00,37.9,-4.2,17.72,ENE,77,3.1,3.1,16,0.00,,---,0.00,VWS V13.01,2013-03-25 14:55:00,
2013-03-25 11:00:00,37.6,-4.5,17.72,ENE,70,5.4,5.4,16,0.00,,---,0.00,VWS V13.01,2013-03-25 15:00:00,
2013-03-25 11:05:00,37.2,-3.6,17.72,East,85,2.7,2.7,17,0.00,,---,0.00,VWS V13.01,2013-03-25 15:05:00,
2013-03-25 11:10:00,37.4,-4.7,17.72,East,101,3.1,3.1,16,0.00,,---,0.00,VWS V13.01,2013-03-25 15:10:00,
2013-03-25 11:15:00,37.4,-4.7,17.72,ENE,77,3.1,4.9,16,0.00,,---,0.00,VWS V13.01,2013-03-25 15:15:00,
2013-03-25 11:20:00,37.4,-4.7,17.72,ESE,119,3.1,3.6,16,0.00,,---,0.00,VWS V13.01,2013-03-25 15:20:00,
2013-03-25 11:25:00,37.6,-4.5,17.72,NE,35,2.7,2.7,16,0.00,,---,0.00,VWS V13.01,2013-03-25 15:25:00,
2013-03-25 11:30:00,37.6,-4.5,17.72,ESE,110,0.0,0.0,16,0.00,,---,0.00,VWS V13.01,2013-03-25 15:30:00,
2013-03-25 11:35:00,37.8,-4.4,17.72,NE,38,4.0,4.0,16,0.00,,---,0.00,VWS V13.01,2013-03-25 15:35:00,
2013-03-25 11:40:00,37.8,-4.4,17.72,ENE,73,3.1,4.9,16,0.00,,---,0.00,VWS V13.01,2013-03-25 15:40:00,
2013-03-25 11:45:00,38.3,-4.0,17.72,SE,145,3.1,6.3,16,0.00,,---,0.00,VWS V13.01,2013-03-25 15:45:00,
2013-03-25 11:50:00,38.5,-3.8,17.72,ESE,103,3.6,6.3,16,0.00,,---,0.00,VWS V13.01,2013-03-25 15:50:00,
2013-03-25 11:55:00,38.3,-4.0,17.72,East,83,2.7,2.7,16,0.00,,---,0.00,VWS V13.01,2013-03-25 15:55:00,
2013-03-25 12:00:00,38.1,-4.1,17.72,SE,137,2.7,4.9,16,0.00,,---,0.00,VWS V13.01,2013-03-25 16:00:00,
2013-03-25 12:05:00,37.9,-4.2,17.72,ENE,74,4.0,7.6,16,0.00,,---,0.00,VWS V13.01,2013-03-25 16:05:00,
2013-03-25 12:10:00,37.9,-4.2,17.72,ENE,70,2.7,3.6,16,0.00,,---,0.00,VWS V13.01,2013-03-25 16:10:00,
2013-03-25 12:15:00,37.8,-4.4,17.72,ESE,114,3.6,3.6,16,0.00,,---,0.00,VWS V13.01,2013-03-25 16:15:00,
2013-03-25 12:20:00,37.6,-4.5,17.72,ENE,57,5.4,7.6,16,0.00,,---,0.00,VWS V13.01,2013-03-25 16:20:00,
2013-03-25 12:25:00,37.6,-4.5,17.72,ENE,70,8.1,8.1,16,0.00,,---,0.00,VWS V13.01,2013-03-25 16:25:00,
2013-03-25 12:30:00,37.8,-4.4,17.72,ESE,118,8.3,8.3,16,0.00,,---,0.00,VWS V13.01,2013-03-25 16:30:00,
2013-03-25 12:35:00,37.9,-4.2,17.72,NE,49,3.1,8.7,16,0.00,,---,0.00,VWS V13.01,2013-03-25 16:35:00,
2013-03-25 12:40:00,37.9,-4.2,17.72,ENE,70,8.7,9.2,16,0.00,,---,0.00,VWS V13.01,2013-03-25 16:40:00,
2013-03-25 12:45:00,37.9,-4.2,17.72,ENE,72,3.6,6.3,16,0.00,,---,0.00,VWS V13.01,2013-03-25 16:45:00,
2013-03-25 12:50:00,37.8,-4.4,17.72,NE,43,5.4,7.6,16,0.00,,---,0.00,VWS V13.01,2013-03-25 16:50:00,
2013-03-25 12:55:00,37.9,-4.2,17.72,ENE,61,8.1,8.1,16,0.00,,---,0.00,VWS V13.01,2013-03-25 16:55:00,
2013-03-25 13:00:00,37.9,-4.2,17.72,East,91,5.8,8.1,16,0.00,,---,0.00,VWS V13.01,2013-03-25 17:00:00,
2013-03-25 13:05:00,38.1,-4.1,17.72,ESE,118,3.1,3.1,16,0.00,,---,0.00,VWS V13.01,2013-03-25 17:05:00,
2013-03-25 13:10:00,38.1,-4.1,17.72,ESE,108,3.6,5.4,16,0.00,,---,0.00,VWS V13.01,2013-03-25 17:10:00,
2013-03-25 13:15:00,38.1,-4.1,17.72,NE,48,3.6,7.2,16,0.00,,---,0.00,VWS V13.01,2013-03-25 17:15:00,
2013-03-25 13:20:00,38.5,-3.8,17.72,ENE,64,5.4,5.4,16,0.00,,---,0.00,VWS V13.01,2013-03-25 17:20:00,
2013-03-25 13:25:00,38.5,-3.8,17.72,NE,48,3.1,5.8,16,0.00,,---,0.00,VWS V13.01,2013-03-25 17:25:00,
2013-03-25 13:30:00,38.5,-3.8,17.72,East,80,2.2,5.8,16,0.00,,---,0.00,VWS V13.01,2013-03-25 17:30:00,
2013-03-25 13:35:00,38.8,-3.5,17.72,ENE,65,3.6,7.6,16,0.00,,---,0.00,VWS V13.01,2013-03-25 17:35:00,
2013-03-25 13:40:00,38.8,-3.5,17.72,ENE,57,5.8,5.8,16,0.00,,---,0.00,VWS V13.01,2013-03-25 17:40:00,
2013-03-25 13:45:00,38.7,-3.7,17.72,NE,39,2.7,4.0,16,0.00,,---,0.00,VWS V13.01,2013-03-25 17:45:00,
2013-03-25 13:50:00,38.8,0.1,17.72,ENE,67,2.7,2.7,19,0.00,,---,0.00,VWS V13.01,2013-03-25 17:50:00,
2013-03-25 13:55:00,39.7,-0.3,17.72,NNE,30,2.7,4.0,18,0.00,,---,0.00,VWS V13.01,2013-03-25 17:55:00,
2013-03-25 14:00:00,39.7,-0.3,17.72,NE,51,2.7,3.6,18,0.00,,---,0.00,VWS V13.01,2013-03-25 18:00:00,
2013-03-25 14:05:00,39.9,-0.1,17.72,ENE,76,4.9,4.9,18,0.00,,---,0.00,VWS V13.01,2013-03-25 18:05:00,
2013-03-25 14:10:00,39.4,-3.1,17.72,East,94,2.7,5.4,16,0.00,,---,0.00,VWS V13.01,2013-03-25 18:10:00,
2013-03-25 14:15:00,39.4,-0.6,17.72,East,92,4.0,4.0,18,0.00,,---,0.00,VWS V13.01,2013-03-25 18:15:00,
2013-03-25 14:20:00,39.2,-0.7,17.72,South,182,3.1,3.1,18,0.00,,---,0.00,VWS V13.01,2013-03-25 18:20:00,
2013-03-25 14:25:00,39.0,0.3,17.72,SSE,157,2.2,7.6,19,0.00,,---,0.00,VWS V13.01,2013-03-25 18:25:00,
2013-03-25 14:30:00,38.8,0.1,17.72,ENE,72,4.0,5.4,19,0.00,,---,0.00,VWS V13.01,2013-03-25 18:30:00,
2013-03-25 14:35:00,38.7,0.0,17.72,ENE,71,8.7,10.1,19,0.00,,---,0.00,VWS V13.01,2013-03-25 18:35:00,
2013-03-25 14:40:00,38.7,0.0,17.72,ENE,65,2.7,3.6,19,0.00,,---,0.00,VWS V13.01,2013-03-25 18:40:00,
2013-03-25 14:45:00,38.5,-0.2,17.72,ESE,115,3.1,4.9,19,0.00,,---,0.00,VWS V13.01,2013-03-25 18:45:00,
2013-03-25 14:50:00,38.7,0.0,17.72,North,7,4.9,4.9,19,0.00,,---,0.00,VWS V13.01,2013-03-25 18:50:00,
2013-03-25 14:55:00,38.7,0.0,17.72,ENE,71,4.9,8.1,19,0.00,,---,0.00,VWS V13.01,2013-03-25 18:55:00,
2013-03-25 15:00:00,38.8,0.1,17.72,SE,125,3.6,3.6,19,0.00,,---,0.00,VWS V13.01,2013-03-25 19:00:00,
2013-03-25 15:05:00,39.2,-0.7,17.72,East,82,3.1,3.1,18,0.00,,---,0.00,VWS V13.01,2013-03-25 19:05:00,
2013-03-25 15:10:00,39.7,-0.3,17.72,NE,45,0.0,2.7,18,0.00,,---,0.00,VWS V13.01,2013-03-25 19:10:00,
2013-03-25 15:15:00,40.3,0.2,17.72,East,89,3.6,6.7,18,0.00,,---,0.00,VWS V13.01,2013-03-25 19:15:00,
2013-03-25 15:20:00,39.7,-0.3,17.72,ENE,74,4.9,5.8,18,0.00,,---,0.00,VWS V13.01,2013-03-25 19:20:00,
2013-03-25 15:25:00,39.2,-0.7,17.72,East,100,2.7,4.0,18,0.00,,---,0.00,VWS V13.01,2013-03-25 19:25:00,
2013-03-25 15:30:00,39.4,-0.6,17.72,ENE,72,4.0,4.0,18,0.00,,---,0.00,VWS V13.01,2013-03-25 19:30:00,
2013-03-25 15:35:00,39.2,-0.7,17.72,ENE,72,3.6,4.9,18,0.00,,---,0.00,VWS V13.01,2013-03-25 19:35:00,
2013-03-25 15:40:00,39.2,-0.7,17.72,NNE,23,3.1,3.1,18,0.00,,---,0.00,VWS V13.01,2013-03-25 19:40:00,
2013-03-25 15:45:00,39.7,-0.3,17.72,ESE,112,0.0,2.7,18,0.00,,---,0.00,VWS V13.01,2013-03-25 19:45:00,
2013-03-25 15:50:00,39.9,-0.1,17.72,SE,140,2.7,5.8,18,0.00,,---,0.00,VWS V13.01,2013-03-25 19:50:00,
2013-03-25 15:55:00,39.6,-0.4,17.72,East,101,4.0,4.0,18,0.00,,---,0.00,VWS V13.01,2013-03-25 19:55:00,
2013-03-25 16:00:00,39.7,-0.3,17.72,North,0,4.0,5.8,18,0.00,,---,0.00,VWS V13.01,2013-03-25 20:00:00,
2013-03-25 16:05:00,39.2,-3.2,17.72,ENE,76,3.6,8.3,16,0.00,,---,0.00,VWS V13.01,2013-03-25 20:05:00,
2013-03-25 16:10:00,38.8,-3.5,17.72,NE,54,4.0,4.0,16,0.00,,---,0.00,VWS V13.01,2013-03-25 20:10:00,
2013-03-25 16:15:00,38.8,-3.5,17.72,ESE,104,2.7,3.6,16,0.00,,---,0.00,VWS V13.01,2013-03-25 20:15:00,
2013-03-25 16:20:00,39.0,0.3,17.72,ENE,75,3.1,6.3,19,0.00,,---,0.00,VWS V13.01,2013-03-25 20:20:00,
2013-03-25 16:25:00,39.2,-0.7,17.72,East,84,3.6,5.4,18,0.00,,---,0.00,VWS V13.01,2013-03-25 20:25:00,
2013-03-25 16:30:00,39.2,-0.7,17.72,ESE,118,5.8,5.8,18,0.00,,---,0.00,VWS V13.01,2013-03-25 20:30:00,
2013-03-25 16:35:00,39.4,-0.6,17.72,ENE,61,2.7,5.4,18,0.00,,---,0.00,VWS V13.01,2013-03-25 20:35:00,
2013-03-25 16:40:00,39.2,-0.7,17.72,East,98,6.3,11.0,18,0.00,,---,0.00,VWS V13.01,2013-03-25 20:40:00,
2013-03-25 16:44:00,39.4,-0.6,17.72,ENE,70,3.1,4.0,18,0.00,,---,0.00,VWS V13.01,2013-03-25 20:44:00,
2013-03-25 16:50:00,39.4,-0.6,17.72,NE,49,3.1,5.4,18,0.00,,---,0.00,VWS V13.01,2013-03-25 20:50:00,
2013-03-25 16:54:00,39.4,-0.6,17.72,ESE,108,5.8,6.3,18,0.00,,---,0.00,VWS V13.01,2013-03-25 20:54:00,
2013-03-25 16:59:00,39.6,-0.4,17.72,ESE,118,4.0,4.0,18,0.00,,---,0.00,VWS V13.01,2013-03-25 20:59:00,
2013-03-25 17:04:00,39.4,-0.6,17.72,ENE,74,5.8,5.8,18,0.00,,---,0.00,VWS V13.01,2013-03-25 21:04:00,
2013-03-25 17:09:00,39.4,-0.6,17.72,East,98,2.2,5.8,18,0.00,,---,0.00,VWS V13.01,2013-03-25 21:09:00,
2013-03-25 17:14:00,39.4,-0.6,17.72,ENE,77,3.6,6.3,18,0.00,,---,0.00,VWS V13.01,2013-03-25 21:14:00,
2013-03-25 17:19:00,39.0,0.3,17.72,East,99,3.1,5.8,19,0.00,,---,0.00,VWS V13.01,2013-03-25 21:19:00,
2013-03-25 17:24:00,39.0,0.3,17.72,East,101,4.0,4.0,19,0.00,,---,0.00,VWS V13.01,2013-03-25 21:24:00,
2013-03-25 17:29:00,39.0,0.3,17.72,ENE,77,4.0,4.0,19,0.00,,---,0.00,VWS V13.01,2013-03-25 21:29:00,
2013-03-25 17:34:00,38.7,0.0,17.72,East,84,2.7,5.4,19,0.00,,---,0.00,VWS V13.01,2013-03-25 21:34:00,
2013-03-25 17:39:00,38.7,0.0,17.72,ENE,67,2.7,3.1,19,0.00,,---,0.00,VWS V13.01,2013-03-25 21:39:00,
2013-03-25 17:44:00,38.5,-0.2,17.72,East,87,4.0,6.3,19,0.00,,---,0.00,VWS V13.01,2013-03-25 21:44:00,
2013-03-25 17:49:00,38.3,-0.3,17.72,ENE,71,0.0,6.3,19,0.00,,---,0.00,VWS V13.01,2013-03-25 21:49:00,
2013-03-25 17:54:00,38.3,-0.3,17.72,ENE,73,7.6,7.6,19,0.00,,---,0.00,VWS V13.01,2013-03-25 21:54:00,
2013-03-25 17:59:00,38.1,-0.5,17.72,ENE,73,2.7,2.7,19,0.00,,---,0.00,VWS V13.01,2013-03-25 21:59:00,
2013-03-25 18:04:00,38.1,-0.5,17.72,NNE,14,2.7,2.7,19,0.00,,---,0.00,VWS V13.01,2013-03-25 22:04:00,
2013-03-25 18:09:00,38.1,-0.5,17.72,ESE,103,2.7,4.0,19,0.00,,---,0.00,VWS V13.01,2013-03-25 22:09:00,
2013-03-25 18:14:00,37.9,-0.6,17.72,ENE,74,2.7,3.1,19,0.00,,---,0.00,VWS V13.01,2013-03-25 22:14:00,
2013-03-25 18:19:00,37.9,-0.6,17.72,SE,139,4.9,4.9,19,0.00,,---,0.00,VWS V13.01,2013-03-25 22:19:00,
2013-03-25 18:25:00,37.9,-0.6,17.72,North,353,0.0,2.2,19,0.00,,---,0.00,VWS V13.01,2013-03-25 22:25:00,
2013-03-25 18:30:00,37.9,-0.6,17.72,NNE,18,0.0,0.0,19,0.00,,---,0.00,VWS V13.01,2013-03-25 22:30:00,
2013-03-25 18:35:00,37.9,-0.6,17.72,NNE,16,0.0,2.2,19,0.00,,---,0.00,VWS V13.01,2013-03-25 22:35:00,
2013-03-25 18:40:00,37.6,-0.9,17.72,East,85,0.0,3.1,19,0.00,,---,0.00,VWS V13.01,2013-03-25 22:40:00,
2013-03-25 18:45:00,37.6,-0.9,17.72,NE,36,0.0,5.4,19,0.00,,---,0.00,VWS V13.01,2013-03-25 22:45:00,
2013-03-25 18:50:00,37.4,-1.1,17.72,East,96,0.0,4.0,19,0.00,,---,0.00,VWS V13.01,2013-03-25 22:50:00,
2013-03-25 18:55:00,37.4,-1.1,17.72,East,96,0.0,2.7,19,0.00,,---,0.00,VWS V13.01,2013-03-25 22:55:00,
2013-03-25 19:00:00,37.2,-1.2,17.72,North,5,0.0,2.2,19,0.00,,---,0.00,VWS V13.01,2013-03-25 23:00:00,
2013-03-25 19:05:00,37.0,-1.4,17.72,NNE,23,2.7,2.7,19,0.00,,---,0.00,VWS V13.01,2013-03-25 23:05:00,
2013-03-25 19:10:00,37.0,-1.4,17.72,NNE,27,0.0,3.6,19,0.00,,---,0.00,VWS V13.01,2013-03-25 23:10:00,
2013-03-25 19:15:00,36.9,-1.5,17.72,NE,48,0.0,0.0,19,0.00,,---,0.00,VWS V13.01,2013-03-25 23:15:00,
2013-03-25 19:20:00,36.7,-1.7,17.72,NE,48,0.0,0.0,19,0.00,,---,0.00,VWS V13.01,2013-03-25 23:20:00,
2013-03-25 19:25:00,36.5,-1.8,17.72,NE,48,0.0,0.0,19,0.00,,---,0.00,VWS V13.01,2013-03-25 23:25:00,
2013-03-25 19:30:00,36.3,-2.0,17.72,NE,48,0.0,0.0,19,0.00,,---,0.00,VWS V13.01,2013-03-25 23:30:00,
2013-03-25 19:35:00,36.3,-2.0,17.72,NE,48,0.0,0.0,19,0.00,,---,0.00,VWS V13.01,2013-03-25 23:35:00,
2013-03-25 19:40:00,36.1,-2.1,17.72,NE,48,0.0,0.0,19,0.00,,---,0.00,VWS V13.01,2013-03-25 23:40:00,
2013-03-25 19:45:00,36.0,-2.3,17.72,NE,48,0.0,0.0,19,0.00,,---,0.00,VWS V13.01,2013-03-25 23:45:00,
2013-03-25 19:50:00,35.8,-2.4,17.72,NE,48,0.0,0.0,19,0.00,,---,0.00,VWS V13.01,2013-03-25 23:50:00,
2013-03-25 19:55:00,35.6,-2.6,17.72,NE,43,0.0,0.0,19,0.00,,---,0.00,VWS V13.01,2013-03-25 23:55:00,
2013-03-25 20:00:00,35.6,-2.6,17.72,NE,43,0.0,0.0,19,0.00,,---,0.00,VWS V13.01,2013-03-26 00:00:00,
2013-03-25 20:05:00,35.4,-1.6,17.72,NE,43,0.0,0.0,20,0.00,,---,0.00,VWS V13.01,2013-03-26 00:05:00,
2013-03-25 20:10:00,35.1,-2.0,17.72,NE,43,0.0,0.0,20,0.00,,---,0.00,VWS V13.01,2013-03-26 00:10:00,
2013-03-25 20:15:00,34.9,-2.1,17.72,NE,43,0.0,0.0,20,0.00,,---,0.00,VWS V13.01,2013-03-26 00:15:00,
2013-03-25 20:20:00,34.7,-2.3,17.72,NE,43,0.0,0.0,20,0.00,,---,0.00,VWS V13.01,2013-03-26 00:20:00,
2013-03-25 20:25:00,34.5,-2.4,17.72,NE,43,0.0,0.0,20,0.00,,---,0.00,VWS V13.01,2013-03-26 00:25:00,
2013-03-25 20:30:00,34.3,-0.6,17.72,NE,43,0.0,0.0,22,0.00,,---,0.00,VWS V13.01,2013-03-26 00:30:00,
2013-03-25 20:35:00,34.3,-0.6,17.72,NE,43,0.0,0.0,22,0.00,,---,0.00,VWS V13.01,2013-03-26 00:35:00,
2013-03-25 20:40:00,34.0,-0.9,17.72,NE,43,0.0,0.0,22,0.00,,---,0.00,VWS V13.01,2013-03-26 00:40:00,
2013-03-25 20:45:00,34.0,-0.9,17.72,NE,43,0.0,0.0,22,0.00,,---,0.00,VWS V13.01,2013-03-26 00:45:00,
2013-03-25 20:50:00,33.8,-1.0,17.72,NE,43,0.0,0.0,22,0.00,,---,0.00,VWS V13.01,2013-03-26 00:50:00,
2013-03-25 20:55:00,33.6,-0.2,17.72,NE,43,0.0,0.0,23,0.00,,---,0.00,VWS V13.01,2013-03-26 00:55:00,
2013-03-25 21:00:00,33.4,-0.4,17.72,NE,43,0.0,0.0,23,0.00,,---,0.00,VWS V13.01,2013-03-26 01:00:00,
2013-03-25 21:05:00,33.3,-0.5,17.72,NE,43,0.0,0.0,23,0.00,,---,0.00,VWS V13.01,2013-03-26 01:05:00,
2013-03-25 21:10:00,33.1,-0.7,17.72,NE,43,0.0,0.0,23,0.00,,---,0.00,VWS V13.01,2013-03-26 01:10:00,
2013-03-25 21:15:00,32.9,-0.8,17.72,NE,43,0.0,0.0,23,0.00,,---,0.00,VWS V13.01,2013-03-26 01:15:00,
2013-03-25 21:20:00,32.7,-1.0,17.72,NE,43,0.0,0.0,23,0.00,,---,0.00,VWS V13.01,2013-03-26 01:20:00,
2013-03-25 21:25:00,32.7,0.8,17.72,NE,43,0.0,0.0,25,0.00,,---,0.00,VWS V13.01,2013-03-26 01:25:00,
2013-03-25 21:30:00,32.4,0.5,17.72,NE,43,0.0,0.0,25,0.00,,---,0.00,VWS V13.01,2013-03-26 01:30:00,
2013-03-25 21:35:00,32.2,0.3,17.72,NE,43,0.0,0.0,25,0.00,,---,0.00,VWS V13.01,2013-03-26 01:35:00,
2013-03-25 21:40:00,32.2,0.3,17.72,NE,43,0.0,0.0,25,0.00,,---,0.00,VWS V13.01,2013-03-26 01:40:00,
2013-03-25 21:45:00,32.2,0.3,17.72,NE,43,0.0,0.0,25,0.00,,---,0.00,VWS V13.01,2013-03-26 01:45:00,
2013-03-25 21:50:00,32.0,0.2,17.72,NE,43,0.0,0.0,25,0.00,,---,0.00,VWS V13.01,2013-03-26 01:50:00,
2013-03-25 21:55:00,32.0,2.6,17.72,NE,43,0.0,0.0,28,0.00,,---,0.00,VWS V13.01,2013-03-26 01:55:00,
2013-03-25 22:00:00,31.8,2.4,17.72,NE,43,0.0,0.0,28,0.00,,---,0.00,VWS V13.01,2013-03-26 02:00:00,
2013-03-25 22:05:00,32.0,2.6,17.72,NE,43,0.0,0.0,28,0.00,,---,0.00,VWS V13.01,2013-03-26 02:05:00,
2013-03-25 22:10:00,32.0,2.6,17.72,NE,43,0.0,0.0,28,0.00,,---,0.00,VWS V13.01,2013-03-26 02:10:00,
2013-03-25 22:15:00,32.0,2.6,17.72,NE,43,0.0,0.0,28,0.00,,---,0.00,VWS V13.01,2013-03-26 02:15:00,
2013-03-25 22:20:00,32.0,4.1,17.72,NE,43,0.0,0.0,30,0.00,,---,0.00,VWS V13.01,2013-03-26 02:20:00,
2013-03-25 22:25:00,32.0,4.1,17.72,NE,43,0.0,0.0,30,0.00,,---,0.00,VWS V13.01,2013-03-26 02:25:00,
2013-03-25 22:30:00,32.0,4.1,17.72,NE,43,0.0,0.0,30,0.00,,---,0.00,VWS V13.01,2013-03-26 02:30:00,
2013-03-25 22:35:00,32.0,4.1,17.72,NE,43,0.0,0.0,30,0.00,,---,0.00,VWS V13.01,2013-03-26 02:35:00,
2013-03-25 22:40:00,32.0,4.1,17.72,NE,43,0.0,0.0,30,0.00,,---,0.00,VWS V13.01,2013-03-26 02:40:00,
2013-03-25 22:45:00,31.6,3.8,17.72,NE,43,0.0,0.0,30,0.00,,---,0.00,VWS V13.01,2013-03-26 02:45:00,
2013-03-25 22:50:00,31.5,3.6,17.72,NE,43,0.0,0.0,30,0.00,,---,0.00,VWS V13.01,2013-03-26 02:50:00,
2013-03-25 22:55:00,31.5,3.6,17.72,NE,43,0.0,0.0,30,0.00,,---,0.00,VWS V13.01,2013-03-26 02:55:00,
2013-03-25 23:00:00,31.5,3.6,17.72,NE,43,0.0,0.0,30,0.00,,---,0.00,VWS V13.01,2013-03-26 03:00:00,
2013-03-25 23:05:00,31.6,3.8,17.72,NE,43,0.0,0.0,30,0.00,,---,0.00,VWS V13.01,2013-03-26 03:05:00,
2013-03-25 23:10:00,32.0,4.1,17.72,NE,43,0.0,0.0,30,0.00,,---,0.00,VWS V13.01,2013-03-26 03:10:00,
2013-03-25 23:15:00,32.4,5.1,17.72,NE,43,0.0,0.0,31,0.00,,---,0.00,VWS V13.01,2013-03-26 03:15:00,
2013-03-25 23:20:00,32.5,5.3,17.72,NE,43,0.0,0.0,31,0.00,,---,0.00,VWS V13.01,2013-03-26 03:20:00,
2013-03-25 23:25:00,32.7,5.4,17.72,NE,43,0.0,0.0,31,0.00,,---,0.00,VWS V13.01,2013-03-26 03:25:00,
2013-03-25 23:30:00,32.9,5.6,17.72,NE,43,0.0,0.0,31,0.00,,---,0.00,VWS V13.01,2013-03-26 03:30:00,
2013-03-25 23:35:00,33.1,5.8,17.72,WNW,293,0.0,3.1,31,0.00,,---,0.00,VWS V13.01,2013-03-26 03:35:00,
2013-03-25 23:40:00,33.3,5.9,17.72,NNW,330,0.0,0.0,31,0.00,,---,0.00,VWS V13.01,2013-03-26 03:40:00,
2013-03-25 23:45:00,33.4,6.1,17.72,NNW,330,0.0,0.0,31,0.00,,---,0.00,VWS V13.01,2013-03-26 03:45:00,
2013-03-25 23:50:00,33.4,6.1,17.72,NNW,328,0.0,0.0,31,0.00,,---,0.00,VWS V13.01,2013-03-26 03:50:00,
2013-03-25 23:55:00,33.4,6.1,17.72,NNW,328,0.0,0.0,31,0.00,,---,0.00,VWS V13.01,2013-03-26 03:55:00,